createdAt,value
2019-02-22T00:00:37.235Z,92.00
2019-02-22T00:03:13.673Z,91.80
2019-02-22T00:05:43.844Z,92.00
2019-02-22T00:08:32.048Z,92.10
2019-02-22T00:10:55.171Z,92.20
2019-02-22T00:13:29.332Z,92.20
2019-02-22T00:16:11.177Z,92.20
2019-02-22T00:18:42.376Z,92.20
2019-02-22T00:21:19.424Z,92.10
2019-02-22T00:24:03.269Z,92.20
2019-02-22T00:26:49.497Z,92.20
2019-02-22T00:29:19.107Z,92.30
2019-02-22T00:31:57.124Z,92.20
2019-02-22T00:34:37.720Z,92.20
2019-02-22T00:37:11.771Z,92.00
2019-02-22T00:39:49.150Z,91.80
2019-02-22T00:42:26.585Z,91.80
2019-02-22T00:45:01.480Z,91.70
2019-02-22T00:47:37.768Z,91.60
2019-02-22T00:50:13.543Z,91.60
2019-02-22T00:52:46.849Z,92.10
2019-02-22T00:55:25.445Z,91.70
2019-02-22T00:58:02.192Z,91.60
2019-02-22T01:00:37.549Z,91.60
2019-02-22T01:03:18.744Z,91.60
2019-02-22T01:05:54.244Z,91.60
2019-02-22T01:08:32.267Z,91.40
2019-02-22T01:11:06.446Z,91.40
2019-02-22T01:13:39.810Z,91.30
2019-02-22T01:16:10.513Z,91.30
2019-02-22T01:18:45.953Z,91.30
2019-02-22T01:21:24.475Z,91.30
2019-02-22T01:23:55.548Z,91.20
2019-02-22T01:26:38.406Z,91.20
2019-02-22T01:29:22.549Z,91.20
2019-02-22T01:32:18.818Z,91.10
2019-02-22T01:35:05.972Z,91.10
2019-02-22T01:37:47.499Z,91.20
2019-02-22T01:40:26.614Z,91.30
2019-02-22T01:43:02.710Z,91.40
2019-02-22T01:45:51.214Z,91.40
2019-02-22T01:48:22.321Z,91.50
2019-02-22T01:51:13.834Z,91.50
2019-02-22T01:53:58.653Z,91.60
2019-02-22T01:56:36.574Z,91.70
2019-02-22T01:59:14.401Z,91.80
2019-02-22T02:02:04.194Z,91.70
2019-02-22T02:04:36.399Z,91.60
2019-02-22T02:10:01.266Z,91.80
2019-02-22T02:12:49.683Z,91.60
2019-02-22T02:15:36.567Z,91.50
2019-02-22T02:18:09.308Z,91.60
2019-02-22T02:20:59.987Z,91.40
2019-02-22T02:23:47.618Z,91.30
2019-02-22T02:26:37.125Z,91.30
2019-02-22T02:29:10.320Z,91.20
2019-02-22T02:31:48.156Z,91.20
2019-02-22T02:34:25.040Z,91.20
2019-02-22T02:36:58.327Z,91.30
2019-02-22T02:40:01.916Z,91.80
2019-02-22T02:42:39.023Z,91.80
2019-02-22T02:45:09.978Z,91.60
2019-02-22T02:47:51.303Z,91.70
2019-02-22T02:50:31.926Z,91.70
2019-02-22T02:55:43.595Z,91.70
2019-02-22T02:58:24.809Z,91.80
2019-02-22T03:00:51.754Z,91.70
2019-02-22T03:03:30.768Z,91.80
2019-02-22T03:06:21.525Z,91.70
2019-02-22T03:08:54.411Z,91.70
2019-02-22T03:11:29.835Z,91.70
2019-02-22T03:14:10.178Z,91.60
2019-02-22T03:16:51.504Z,91.60
2019-02-22T03:19:36.002Z,91.60
2019-02-22T03:22:16.217Z,91.60
2019-02-22T03:24:59.068Z,91.70
2019-02-22T03:27:36.330Z,91.80
2019-02-22T03:30:10.341Z,91.90
2019-02-22T03:32:47.106Z,92.00
2019-02-22T03:35:25.955Z,92.30
2019-02-22T03:38:18.202Z,92.40
2019-02-22T03:40:51.179Z,92.10
2019-02-22T03:43:33.273Z,92.20
2019-02-22T03:46:14.674Z,92.20
2019-02-22T03:48:57.167Z,92.10
2019-02-22T03:51:36.670Z,92.70
2019-02-22T03:54:15.794Z,92.40
2019-02-22T03:56:49.589Z,92.50
2019-02-22T03:59:21.771Z,92.50
2019-02-22T04:01:55.395Z,92.60
2019-02-22T04:04:34.632Z,92.80
2019-02-22T04:07:28.947Z,92.80
2019-02-22T04:10:05.888Z,92.70
2019-02-22T04:12:52.818Z,92.50
2019-02-22T04:15:36.529Z,92.30
2019-02-22T04:18:31.174Z,92.20
2019-02-22T04:21:12.961Z,92.20
2019-02-22T04:24:11.657Z,92.20
2019-02-22T04:26:48.116Z,92.30
2019-02-22T04:29:30.022Z,92.50
2019-02-22T04:32:29.731Z,92.40
2019-02-22T04:35:13.364Z,92.20
2019-02-22T04:38:11.240Z,92.20
2019-02-22T04:45:15.069Z,92.10
2019-02-22T04:49:20.693Z,92.10
2019-02-22T04:55:33.567Z,92.20
2019-02-22T04:57:58.497Z,92.20
2019-02-22T05:00:48.680Z,92.30
2019-02-22T05:03:39.710Z,92.80
2019-02-22T05:06:43.369Z,93.80
2019-02-22T05:12:24.536Z,95.30
2019-02-22T05:15:12.083Z,95.90
2019-02-22T05:17:43.089Z,96.20
2019-02-22T05:24:37.590Z,96.50
2019-02-22T05:31:09.791Z,97.30
2019-02-22T05:52:38.018Z,98.20
2019-02-22T06:00:17.598Z,98.30
2019-02-22T06:03:21.877Z,98.40
2019-02-22T06:06:16.651Z,98.50
2019-02-22T06:12:11.519Z,98.70
2019-02-22T06:14:49.447Z,98.90
2019-02-22T06:17:43.745Z,98.80
2019-02-22T06:20:18.536Z,98.80
2019-02-22T06:22:47.343Z,98.90
2019-02-22T06:25:29.829Z,98.90
2019-02-22T06:28:16.112Z,99.00
2019-02-22T06:30:53.976Z,99.00
2019-02-22T06:33:30.373Z,99.00
2019-02-22T06:36:06.182Z,99.00
2019-02-22T06:38:58.037Z,99.10
2019-02-22T06:41:40.262Z,99.10
2019-02-22T06:44:31.720Z,98.80
2019-02-22T06:47:17.610Z,98.90
2019-02-22T06:49:47.710Z,98.40
2019-02-22T06:52:15.562Z,98.60
2019-02-22T06:54:51.836Z,98.90
2019-02-22T06:57:19.787Z,98.90
2019-02-22T06:59:47.640Z,98.90
2019-02-22T07:02:15.179Z,98.80
2019-02-22T07:04:43.156Z,98.80
2019-02-22T07:07:12.818Z,98.80
2019-02-22T07:09:50.127Z,98.90
2019-02-22T07:12:56.806Z,98.90
2019-02-22T07:23:54.515Z,98.00
2019-02-22T07:26:35.602Z,97.50
2019-02-22T07:29:02.815Z,96.70
2019-02-22T07:31:30.808Z,96.60
2019-02-22T07:33:58.641Z,96.70
2019-02-22T07:36:34.601Z,96.80
2019-02-22T07:39:04.359Z,96.90
2019-02-22T07:41:32.178Z,97.10
2019-02-22T07:43:59.681Z,97.60
2019-02-22T07:46:50.143Z,97.50
2019-02-22T07:49:22.692Z,97.60
2019-02-22T07:51:50.282Z,97.90
2019-02-22T07:54:18.581Z,98.10
2019-02-22T07:56:46.695Z,98.30
2019-02-22T07:59:14.257Z,98.50
2019-02-22T08:01:47.901Z,98.50
2019-02-22T08:04:15.752Z,98.40
2019-02-22T08:06:43.445Z,98.40
2019-02-22T08:09:11.230Z,98.50
2019-02-22T08:11:38.901Z,98.40
2019-02-22T08:14:07.993Z,98.50
2019-02-22T08:16:40.380Z,98.70
2019-02-22T08:19:32.061Z,98.60
2019-02-22T08:22:00.427Z,98.60
2019-02-22T08:24:28.867Z,98.60
2019-02-22T08:26:56.558Z,98.70
2019-02-22T08:29:24.161Z,98.70
2019-02-22T08:31:51.901Z,98.90
2019-02-22T08:34:22.172Z,98.80
2019-02-22T08:36:49.977Z,98.60
2019-02-22T08:39:17.903Z,98.70
2019-02-22T08:41:45.413Z,98.80
2019-02-22T08:44:12.934Z,98.90
2019-02-22T08:46:40.498Z,98.80
2019-02-22T08:49:07.972Z,98.60
2019-02-22T08:51:35.500Z,98.70
2019-02-22T08:54:02.995Z,98.70
2019-02-22T08:56:30.832Z,98.90
2019-02-22T08:58:58.299Z,98.90
2019-02-22T09:01:25.785Z,98.70
2019-02-22T09:03:53.296Z,98.80
2019-02-22T09:06:21.064Z,99.00
2019-02-22T09:08:48.550Z,99.20
2019-02-22T09:11:16.042Z,99.30
2019-02-22T09:13:44.059Z,99.10
2019-02-22T09:16:11.480Z,98.70
2019-02-22T09:18:38.982Z,98.80
2019-02-22T09:21:06.472Z,99.10
2019-02-22T09:23:34.057Z,99.20
2019-02-22T09:26:01.532Z,99.00
2019-02-22T09:28:29.070Z,98.60
2019-02-22T09:30:56.564Z,98.30
2019-02-22T09:33:24.056Z,98.30
2019-02-22T09:35:51.544Z,98.10
2019-02-22T09:38:19.025Z,98.30
2019-02-22T09:40:46.499Z,98.80
2019-02-22T09:43:14.026Z,98.60
2019-02-22T09:45:41.508Z,98.20
2019-02-22T09:48:09.596Z,98.70
2019-02-22T09:50:37.118Z,98.20
2019-02-22T09:53:04.645Z,98.10
2019-02-22T09:55:32.164Z,98.40
2019-02-22T09:57:59.790Z,97.70
2019-02-22T10:00:27.263Z,97.30
2019-02-22T10:02:54.760Z,97.80
2019-02-22T10:05:22.259Z,97.50
2019-02-22T10:07:49.792Z,97.30
2019-02-22T10:10:17.309Z,97.60
2019-02-22T10:12:44.845Z,97.60
2019-02-22T10:15:12.323Z,97.70
2019-02-22T10:17:39.812Z,98.00
2019-02-22T10:20:07.747Z,97.50
2019-02-22T10:22:36.142Z,96.90
2019-02-22T10:25:04.043Z,97.00
2019-02-22T10:27:31.901Z,97.00
2019-02-22T10:29:59.484Z,96.70
2019-02-22T10:32:27.088Z,96.30
2019-02-22T10:34:54.680Z,96.30
2019-02-22T10:37:22.240Z,95.90
2019-02-22T10:39:49.780Z,96.60
2019-02-22T10:42:17.321Z,95.00
2019-02-22T10:44:44.867Z,95.60
2019-02-22T10:47:12.683Z,95.50
2019-02-22T10:49:44.137Z,95.10
2019-02-22T10:52:28.230Z,95.00
2019-02-22T10:55:00.367Z,94.80
2019-02-22T10:57:27.791Z,95.60
2019-02-22T10:59:55.547Z,95.40
2019-02-22T11:02:23.311Z,94.50
2019-02-22T11:04:50.835Z,93.40
2019-02-22T11:07:18.392Z,93.80
2019-02-22T11:09:46.576Z,94.00
2019-02-22T11:12:14.262Z,94.40
2019-02-22T11:14:42.050Z,94.10
2019-02-22T11:17:10.749Z,94.30
2019-02-22T11:19:39.545Z,94.50
2019-02-22T11:22:07.223Z,94.30
2019-02-22T11:24:37.754Z,94.00
2019-02-22T11:27:05.319Z,93.60
2019-02-22T11:29:33.388Z,93.10
2019-02-22T11:32:00.987Z,93.60
2019-02-22T11:34:28.684Z,93.00
2019-02-22T11:36:56.297Z,93.30
2019-02-22T11:39:24.757Z,93.00
2019-02-22T11:41:52.615Z,92.90
2019-02-22T11:44:20.179Z,93.10
2019-02-22T11:46:47.718Z,93.30
2019-02-22T11:49:15.446Z,93.10
2019-02-22T11:51:44.402Z,92.50
2019-02-22T11:54:12.228Z,92.70
2019-02-22T11:56:39.784Z,92.20
2019-02-22T11:59:07.513Z,92.00
2019-02-22T12:01:35.608Z,91.50
2019-02-22T12:04:03.275Z,91.30
2019-02-22T12:06:32.407Z,91.40
2019-02-22T12:08:59.996Z,91.90
2019-02-22T12:11:27.893Z,91.90
2019-02-22T12:14:03.642Z,90.80
2019-02-22T12:16:39.654Z,91.30
2019-02-22T12:19:07.230Z,91.20
2019-02-22T12:21:52.340Z,91.10
2019-02-22T12:24:19.968Z,91.10
2019-02-22T12:26:47.573Z,90.90
2019-02-22T12:29:15.241Z,90.30
2019-02-22T12:31:44.313Z,90.30
2019-02-22T12:34:13.993Z,90.60
2019-02-22T12:36:47.449Z,90.10
2019-02-22T12:39:15.185Z,90.30
2019-02-22T12:41:43.062Z,90.20
2019-02-22T12:44:10.604Z,90.40
2019-02-22T12:47:45.566Z,90.30
2019-02-22T13:01:06.024Z,89.40
2019-02-22T13:03:38.404Z,88.80
2019-02-22T13:06:18.173Z,86.90
2019-02-22T13:09:36.411Z,85.90
2019-02-22T13:12:27.068Z,86.40
2019-02-22T13:15:14.011Z,86.40
2019-02-22T13:18:18.430Z,86.20
2019-02-22T13:20:57.764Z,86.70
2019-02-22T13:27:30.250Z,87.00
2019-02-22T13:30:50.788Z,87.40
2019-02-22T13:37:25.687Z,85.30
2019-02-22T14:01:17.487Z,84.80
2019-02-22T14:05:12.970Z,83.20
2019-02-22T14:07:35.772Z,82.60
2019-02-22T14:10:04.190Z,84.40
2019-02-22T14:13:00.288Z,82.80
2019-02-22T14:15:49.770Z,83.10
2019-02-22T14:22:15.022Z,81.20
2019-02-22T14:24:42.993Z,82.80
2019-02-22T14:27:12.778Z,82.40
2019-02-22T14:29:40.410Z,80.80
2019-02-22T14:32:21.689Z,81.50
2019-02-22T14:34:57.235Z,80.90
2019-02-22T14:37:26.825Z,81.70
2019-02-22T14:40:06.604Z,81.00
2019-02-22T14:42:41.542Z,80.30
2019-02-22T14:45:16.081Z,81.70
2019-02-22T14:47:43.738Z,82.70
2019-02-22T14:50:13.460Z,81.30
2019-02-22T14:52:47.192Z,77.80
2019-02-22T14:55:21.505Z,77.90
2019-02-22T14:57:49.438Z,78.10
2019-02-22T15:00:17.218Z,77.10
2019-02-22T15:02:44.771Z,78.20
2019-02-22T15:05:12.541Z,78.50
2019-02-22T15:07:40.100Z,78.90
2019-02-22T15:10:07.949Z,78.50
2019-02-22T15:12:35.475Z,78.80
2019-02-22T15:17:59.744Z,78.20
2019-02-22T15:20:34.651Z,78.20
2019-02-22T15:23:02.723Z,76.30
2019-02-22T15:25:30.253Z,77.20
2019-02-22T15:27:57.818Z,76.90
2019-02-22T15:30:35.776Z,76.90
2019-02-22T15:33:05.535Z,77.00
2019-02-22T15:35:32.704Z,77.50
2019-02-22T15:38:00.174Z,78.00
2019-02-22T15:40:27.986Z,78.20
2019-02-22T15:42:55.582Z,78.30
2019-02-22T15:45:23.127Z,78.20
2019-02-22T15:47:50.674Z,77.90
2019-02-22T15:50:18.189Z,78.20
2019-02-22T15:52:46.524Z,78.40
2019-02-22T15:55:15.387Z,78.30
2019-02-22T15:57:50.778Z,78.30
2019-02-22T16:00:19.195Z,78.30
2019-02-22T16:03:06.237Z,78.50
2019-02-22T16:05:52.380Z,78.70
2019-02-22T16:08:19.958Z,78.80
2019-02-22T16:10:48.158Z,78.20
2019-02-22T16:13:58.677Z,78.20
2019-02-22T16:16:53.173Z,78.10
2019-02-22T16:19:47.231Z,78.40
2019-02-22T16:22:14.800Z,79.00
2019-02-22T16:24:42.398Z,79.70
2019-02-22T16:27:09.949Z,79.90
2019-02-22T16:29:43.494Z,80.60
2019-02-22T16:32:27.003Z,80.50
2019-02-22T16:34:54.729Z,80.50
2019-02-22T16:37:22.394Z,80.60
2019-02-22T16:39:52.372Z,80.80
2019-02-22T16:42:20.041Z,81.00
2019-02-22T16:44:48.714Z,81.10
2019-02-22T16:47:26.494Z,81.50
2019-02-22T16:50:13.351Z,81.60
2019-02-22T16:52:41.882Z,81.90
2019-02-22T16:55:12.708Z,81.70
2019-02-22T16:57:41.650Z,81.70
2019-02-22T17:00:29.010Z,81.60
2019-02-22T17:02:56.720Z,81.90
2019-02-22T17:05:24.778Z,82.20
2019-02-22T17:07:54.436Z,82.30
2019-02-22T17:10:26.393Z,82.30
2019-02-22T17:13:43.689Z,82.60
2019-02-22T17:17:01.676Z,82.70
2019-02-22T17:23:09.127Z,82.90
2019-02-22T17:37:06.289Z,83.80
2019-02-22T17:47:08.211Z,83.80
2019-02-22T17:50:16.717Z,84.40
2019-02-22T17:52:41.809Z,84.50
2019-02-22T17:55:09.891Z,84.50
2019-02-22T18:01:03.242Z,84.70
2019-02-22T18:03:31.270Z,84.70
2019-02-22T18:06:00.357Z,84.90
2019-02-22T18:08:28.209Z,85.50
2019-02-22T18:10:56.261Z,86.00
2019-02-22T18:13:24.504Z,86.10
2019-02-22T18:16:17.832Z,86.20
2019-02-22T18:18:47.433Z,86.30
2019-02-22T18:21:16.029Z,86.90
2019-02-22T18:23:44.083Z,87.10
2019-02-22T18:26:12.936Z,87.40
2019-02-22T18:28:50.384Z,87.60
2019-02-22T18:31:42.514Z,88.10
2019-02-22T18:34:52.405Z,88.60
2019-02-22T18:37:52.226Z,88.80
2019-02-22T18:40:24.477Z,88.90
2019-02-22T18:59:04.523Z,88.80
2019-02-22T19:02:29.514Z,88.70
2019-02-22T19:33:57.890Z,90.80
2019-02-22T19:37:09.064Z,91.50
2019-02-22T19:47:01.437Z,91.40
2019-02-22T19:50:25.562Z,91.30
2019-02-22T20:26:51.505Z,92.60
2019-02-22T20:30:34.127Z,93.20
2019-02-22T20:51:57.435Z,93.20
2019-02-22T20:54:34.147Z,93.40
2019-02-22T20:57:25.094Z,93.60
2019-02-22T21:00:01.241Z,93.70
2019-02-22T21:06:29.841Z,93.60
2019-02-22T21:09:34.840Z,93.50
2019-02-22T21:12:12.243Z,93.40
2019-02-22T21:14:48.924Z,93.10
2019-02-22T21:17:28.022Z,93.30
2019-02-22T21:20:15.701Z,93.20
2019-02-22T21:27:52.476Z,93.30
2019-02-22T21:30:33.836Z,93.40
2019-02-22T21:33:03.616Z,93.70
2019-02-22T21:35:51.242Z,93.70
2019-02-22T21:38:22.393Z,93.80
2019-02-22T21:41:18.717Z,93.90
2019-02-22T21:43:51.618Z,93.90
2019-02-22T21:46:23.850Z,93.70
2019-02-22T21:48:51.545Z,93.80
2019-02-22T21:51:19.530Z,93.80
2019-02-22T21:53:47.470Z,93.70
2019-02-22T21:56:18.118Z,93.70
2019-02-22T21:58:48.652Z,93.70
2019-02-22T22:01:17.613Z,93.50
2019-02-22T22:04:00.706Z,93.50
2019-02-22T22:06:29.712Z,93.40
2019-02-22T22:09:13.644Z,93.50
2019-02-22T22:11:43.579Z,93.50
2019-02-22T22:14:13.704Z,93.50
2019-02-22T22:16:44.114Z,93.60
2019-02-22T22:19:15.692Z,93.60
2019-02-22T22:21:45.725Z,93.60
2019-02-22T22:24:14.147Z,93.60
2019-02-22T22:26:42.529Z,93.70
2019-02-22T22:29:15.295Z,93.80
2019-02-22T22:31:43.305Z,93.70
2019-02-22T22:34:14.280Z,93.90
2019-02-22T22:36:44.246Z,94.40
2019-02-22T22:39:23.426Z,94.80
2019-02-22T22:41:52.417Z,95.10
2019-02-22T22:44:20.449Z,95.20
2019-02-22T22:46:48.354Z,95.30
2019-02-22T22:49:16.500Z,95.90
2019-02-22T22:51:51.280Z,96.00
2019-02-22T22:54:19.887Z,96.00
2019-02-22T22:56:48.494Z,96.20
2019-02-22T22:59:21.357Z,96.10
2019-02-22T23:01:57.339Z,96.10
2019-02-22T23:04:27.233Z,96.50
2019-02-22T23:07:00.961Z,96.00
2019-02-22T23:09:34.880Z,95.80
2019-02-22T23:12:03.089Z,95.80
2019-02-22T23:14:34.959Z,95.60
2019-02-22T23:17:09.247Z,95.60
2019-02-22T23:19:38.027Z,95.60
2019-02-22T23:22:18.906Z,95.60
2019-02-22T23:24:48.056Z,95.80
2019-02-22T23:27:22.303Z,95.70
2019-02-22T23:29:53.957Z,95.60
2019-02-22T23:32:35.349Z,95.50
2019-02-22T23:35:06.363Z,95.30
2019-02-22T23:37:37.534Z,95.10
2019-02-22T23:40:34.118Z,95.10
2019-02-22T23:43:31.569Z,95.10
2019-02-22T23:46:05.355Z,95.30
2019-02-22T23:48:39.909Z,95.30
2019-02-22T23:51:10.330Z,95.40
2019-02-22T23:54:04.049Z,95.20
2019-02-22T23:56:44.584Z,95.40
2019-02-22T23:59:16.173Z,95.50
